sensor_id;sensor_type;location;lat;lon;timestamp;P1;durP1;ratioP1;P2;durP2;ratioP2
23567;SDS011;11962;50.838;4.430;2023-06-01T00:01:53;13.80;;;6.97;;
23567;SDS011;11962;50.838;4.430;2023-06-01T00:04:18;11.60;;;6.85;;
23567;SDS011;11962;50.838;4.430;2023-06-01T00:06:44;13.13;;;8.13;;
23567;SDS011;11962;50.838;4.430;2023-06-01T00:09:10;17.70;;;8.50;;
23567;SDS011;11962;50.838;4.430;2023-06-01T00:11:36;18.60;;;8.32;;
23567;SDS011;11962;50.838;4.430;2023-06-01T00:14:02;14.82;;;8.00;;
23567;SDS011;11962;50.838;4.430;2023-06-01T00:16:28;13.60;;;7.40;;
23567;SDS011;11962;50.838;4.430;2023-06-01T00:18:55;14.90;;;7.82;;
23567;SDS011;11962;50.838;4.430;2023-06-01T00:21:22;13.85;;;7.90;;
23567;SDS011;11962;50.838;4.430;2023-06-01T00:23:48;14.25;;;7.82;;
23567;SDS011;11962;50.838;4.430;2023-06-01T00:26:14;18.08;;;8.63;;
23567;SDS011;11962;50.838;4.430;2023-06-01T00:28:40;14.25;;;8.07;;
23567;SDS011;11962;50.838;4.430;2023-06-01T00:31:06;13.45;;;7.75;;
23567;SDS011;11962;50.838;4.430;2023-06-01T00:33:32;13.68;;;8.50;;
23567;SDS011;11962;50.838;4.430;2023-06-01T00:35:58;13.73;;;7.55;;
23567;SDS011;11962;50.838;4.430;2023-06-01T00:38:24;14.30;;;8.02;;
23567;SDS011;11962;50.838;4.430;2023-06-01T00:40:50;12.40;;;8.07;;
23567;SDS011;11962;50.838;4.430;2023-06-01T00:43:19;10.85;;;7.32;;
23567;SDS011;11962;50.838;4.430;2023-06-01T00:45:45;14.52;;;7.65;;
23567;SDS011;11962;50.838;4.430;2023-06-01T00:48:11;12.30;;;8.02;;
23567;SDS011;11962;50.838;4.430;2023-06-01T00:50:37;14.68;;;8.68;;
23567;SDS011;11962;50.838;4.430;2023-06-01T00:53:05;15.73;;;8.70;;
23567;SDS011;11962;50.838;4.430;2023-06-01T00:55:34;14.90;;;8.63;;
23567;SDS011;11962;50.838;4.430;2023-06-01T00:58:00;12.70;;;8.02;;
23567;SDS011;11962;50.838;4.430;2023-06-01T01:00:27;16.10;;;8.43;;
23567;SDS011;11962;50.838;4.430;2023-06-01T01:02:54;14.18;;;8.98;;
23567;SDS011;11962;50.838;4.430;2023-06-01T01:05:22;20.30;;;9.43;;
23567;SDS011;11962;50.838;4.430;2023-06-01T01:18:33;16.05;;;9.32;;
23567;SDS011;11962;50.838;4.430;2023-06-01T01:21:06;13.13;;;9.13;;
23567;SDS011;11962;50.838;4.430;2023-06-01T01:29:33;14.65;;;9.00;;
23567;SDS011;11962;50.838;4.430;2023-06-01T01:32:03;18.60;;;9.15;;
23567;SDS011;11962;50.838;4.430;2023-06-01T01:34:30;15.88;;;9.23;;
23567;SDS011;11962;50.838;4.430;2023-06-01T01:36:58;18.05;;;9.48;;
23567;SDS011;11962;50.838;4.430;2023-06-01T01:39:24;18.05;;;9.85;;
23567;SDS011;11962;50.838;4.430;2023-06-01T01:41:50;14.75;;;9.38;;
23567;SDS011;11962;50.838;4.430;2023-06-01T01:44:16;14.85;;;9.15;;
23567;SDS011;11962;50.838;4.430;2023-06-01T01:46:52;13.88;;;9.30;;
23567;SDS011;11962;50.838;4.430;2023-06-01T01:51:57;17.73;;;10.13;;
23567;SDS011;11962;50.838;4.430;2023-06-01T01:54:32;16.70;;;9.50;;
23567;SDS011;11962;50.838;4.430;2023-06-01T01:57:02;18.70;;;9.52;;
23567;SDS011;11962;50.838;4.430;2023-06-01T01:59:30;18.60;;;9.75;;
23567;SDS011;11962;50.838;4.430;2023-06-01T02:01:56;18.15;;;10.18;;
23567;SDS011;11962;50.838;4.430;2023-06-01T02:04:22;19.38;;;10.55;;
23567;SDS011;11962;50.838;4.430;2023-06-01T02:06:48;17.75;;;10.70;;
23567;SDS011;11962;50.838;4.430;2023-06-01T02:09:14;17.85;;;10.40;;
23567;SDS011;11962;50.838;4.430;2023-06-01T02:11:39;16.63;;;9.27;;
23567;SDS011;11962;50.838;4.430;2023-06-01T02:14:05;17.48;;;10.52;;
23567;SDS011;11962;50.838;4.430;2023-06-01T02:16:31;17.23;;;10.70;;
23567;SDS011;11962;50.838;4.430;2023-06-01T02:18:57;21.40;;;10.57;;
23567;SDS011;11962;50.838;4.430;2023-06-01T02:21:24;17.10;;;10.93;;
23567;SDS011;11962;50.838;4.430;2023-06-01T02:23:50;14.65;;;9.98;;
23567;SDS011;11962;50.838;4.430;2023-06-01T02:26:16;17.63;;;10.75;;
23567;SDS011;11962;50.838;4.430;2023-06-01T02:28:41;16.42;;;10.45;;
23567;SDS011;11962;50.838;4.430;2023-06-01T02:31:12;18.58;;;10.35;;
23567;SDS011;11962;50.838;4.430;2023-06-01T02:33:39;15.83;;;10.93;;
23567;SDS011;11962;50.838;4.430;2023-06-01T02:36:04;14.88;;;10.82;;
23567;SDS011;11962;50.838;4.430;2023-06-01T02:38:31;21.77;;;11.38;;
23567;SDS011;11962;50.838;4.430;2023-06-01T02:40:56;21.38;;;11.90;;
23567;SDS011;11962;50.838;4.430;2023-06-01T02:43:22;17.55;;;11.38;;
23567;SDS011;11962;50.838;4.430;2023-06-01T02:45:48;18.23;;;11.15;;
23567;SDS011;11962;50.838;4.430;2023-06-01T02:48:14;17.63;;;11.35;;
23567;SDS011;11962;50.838;4.430;2023-06-01T02:50:39;19.88;;;12.45;;
23567;SDS011;11962;50.838;4.430;2023-06-01T02:53:05;19.67;;;12.38;;
23567;SDS011;11962;50.838;4.430;2023-06-01T02:55:31;19.48;;;12.27;;
23567;SDS011;11962;50.838;4.430;2023-06-01T02:57:57;19.17;;;11.88;;
23567;SDS011;11962;50.838;4.430;2023-06-01T03:00:22;17.63;;;11.85;;
23567;SDS011;11962;50.838;4.430;2023-06-01T03:02:48;21.05;;;12.35;;
23567;SDS011;11962;50.838;4.430;2023-06-01T03:05:14;22.15;;;12.40;;
23567;SDS011;11962;50.838;4.430;2023-06-01T03:07:42;19.33;;;12.30;;
23567;SDS011;11962;50.838;4.430;2023-06-01T03:10:10;19.20;;;12.20;;
23567;SDS011;11962;50.838;4.430;2023-06-01T03:12:37;21.60;;;13.07;;
23567;SDS011;11962;50.838;4.430;2023-06-01T03:15:03;20.58;;;12.85;;
23567;SDS011;11962;50.838;4.430;2023-06-01T03:17:30;24.23;;;13.20;;
23567;SDS011;11962;50.838;4.430;2023-06-01T03:19:57;21.08;;;13.90;;
23567;SDS011;11962;50.838;4.430;2023-06-01T03:22:23;20.38;;;12.98;;
23567;SDS011;11962;50.838;4.430;2023-06-01T03:24:48;21.67;;;13.05;;
23567;SDS011;11962;50.838;4.430;2023-06-01T03:27:17;26.38;;;14.40;;
23567;SDS011;11962;50.838;4.430;2023-06-01T03:29:44;24.23;;;13.20;;
23567;SDS011;11962;50.838;4.430;2023-06-01T03:32:10;19.63;;;12.65;;
23567;SDS011;11962;50.838;4.430;2023-06-01T03:34:36;24.27;;;13.82;;
23567;SDS011;11962;50.838;4.430;2023-06-01T03:37:02;24.75;;;13.52;;
23567;SDS011;11962;50.838;4.430;2023-06-01T03:39:29;24.08;;;14.13;;
23567;SDS011;11962;50.838;4.430;2023-06-01T03:41:58;28.95;;;14.80;;
23567;SDS011;11962;50.838;4.430;2023-06-01T03:44:24;22.73;;;13.32;;
23567;SDS011;11962;50.838;4.430;2023-06-01T03:46:50;23.92;;;13.77;;
23567;SDS011;11962;50.838;4.430;2023-06-01T03:49:16;25.98;;;14.13;;
23567;SDS011;11962;50.838;4.430;2023-06-01T03:51:42;22.33;;;14.43;;
23567;SDS011;11962;50.838;4.430;2023-06-01T03:54:08;21.55;;;13.90;;
23567;SDS011;11962;50.838;4.430;2023-06-01T03:56:34;26.10;;;14.68;;
23567;SDS011;11962;50.838;4.430;2023-06-01T03:59:00;22.33;;;14.50;;
23567;SDS011;11962;50.838;4.430;2023-06-01T04:01:26;24.08;;;13.18;;
23567;SDS011;11962;50.838;4.430;2023-06-01T04:03:54;21.73;;;13.88;;
23567;SDS011;11962;50.838;4.430;2023-06-01T04:06:21;25.08;;;14.45;;
23567;SDS011;11962;50.838;4.430;2023-06-01T04:08:49;23.42;;;13.70;;
23567;SDS011;11962;50.838;4.430;2023-06-01T04:11:20;22.40;;;14.38;;
23567;SDS011;11962;50.838;4.430;2023-06-01T04:13:47;25.33;;;14.52;;
23567;SDS011;11962;50.838;4.430;2023-06-01T04:16:13;23.25;;;14.60;;
23567;SDS011;11962;50.838;4.430;2023-06-01T04:18:39;20.95;;;13.85;;
23567;SDS011;11962;50.838;4.430;2023-06-01T04:21:05;26.15;;;13.50;;
23567;SDS011;11962;50.838;4.430;2023-06-01T04:23:34;26.90;;;14.35;;
23567;SDS011;11962;50.838;4.430;2023-06-01T04:26:00;18.73;;;13.52;;
23567;SDS011;11962;50.838;4.430;2023-06-01T04:28:27;25.25;;;14.85;;
23567;SDS011;11962;50.838;4.430;2023-06-01T04:30:54;25.77;;;14.67;;
23567;SDS011;11962;50.838;4.430;2023-06-01T04:33:21;22.42;;;14.52;;
23567;SDS011;11962;50.838;4.430;2023-06-01T04:38:18;22.45;;;14.30;;
23567;SDS011;11962;50.838;4.430;2023-06-01T04:40:49;24.98;;;15.13;;
23567;SDS011;11962;50.838;4.430;2023-06-01T04:45:45;23.55;;;14.27;;
23567;SDS011;11962;50.838;4.430;2023-06-01T04:48:11;24.40;;;14.73;;
23567;SDS011;11962;50.838;4.430;2023-06-01T04:50:37;24.33;;;15.05;;
23567;SDS011;11962;50.838;4.430;2023-06-01T04:53:03;23.30;;;15.13;;
23567;SDS011;11962;50.838;4.430;2023-06-01T04:55:29;25.40;;;14.75;;
23567;SDS011;11962;50.838;4.430;2023-06-01T04:57:57;25.65;;;14.90;;
23567;SDS011;11962;50.838;4.430;2023-06-01T05:00:23;28.88;;;16.50;;
23567;SDS011;11962;50.838;4.430;2023-06-01T05:02:49;29.25;;;16.23;;
23567;SDS011;11962;50.838;4.430;2023-06-01T05:05:15;23.65;;;15.50;;
23567;SDS011;11962;50.838;4.430;2023-06-01T05:07:41;23.95;;;15.68;;
23567;SDS011;11962;50.838;4.430;2023-06-01T05:10:08;25.02;;;15.57;;
23567;SDS011;11962;50.838;4.430;2023-06-01T05:12:36;28.10;;;16.30;;
23567;SDS011;11962;50.838;4.430;2023-06-01T05:15:02;26.55;;;15.77;;
23567;SDS011;11962;50.838;4.430;2023-06-01T05:17:30;26.40;;;15.65;;
23567;SDS011;11962;50.838;4.430;2023-06-01T05:19:56;26.90;;;15.85;;
23567;SDS011;11962;50.838;4.430;2023-06-01T05:22:22;30.90;;;15.95;;
23567;SDS011;11962;50.838;4.430;2023-06-01T05:24:48;25.50;;;16.67;;
23567;SDS011;11962;50.838;4.430;2023-06-01T05:27:15;31.70;;;16.85;;
23567;SDS011;11962;50.838;4.430;2023-06-01T05:29:41;26.05;;;16.80;;
23567;SDS011;11962;50.838;4.430;2023-06-01T05:32:06;26.05;;;15.82;;
23567;SDS011;11962;50.838;4.430;2023-06-01T05:34:33;30.92;;;17.60;;
23567;SDS011;11962;50.838;4.430;2023-06-01T05:37:00;32.30;;;18.45;;
23567;SDS011;11962;50.838;4.430;2023-06-01T05:39:26;32.58;;;17.13;;
23567;SDS011;11962;50.838;4.430;2023-06-01T05:41:55;28.00;;;17.60;;
23567;SDS011;11962;50.838;4.430;2023-06-01T05:44:23;27.90;;;16.33;;
23567;SDS011;11962;50.838;4.430;2023-06-01T05:46:49;30.48;;;18.15;;
23567;SDS011;11962;50.838;4.430;2023-06-01T05:49:16;32.22;;;18.42;;
23567;SDS011;11962;50.838;4.430;2023-06-01T05:51:42;31.98;;;17.60;;
23567;SDS011;11962;50.838;4.430;2023-06-01T05:54:08;32.63;;;18.00;;
23567;SDS011;11962;50.838;4.430;2023-06-01T05:56:34;33.65;;;19.98;;
23567;SDS011;11962;50.838;4.430;2023-06-01T05:59:02;33.28;;;18.85;;
23567;SDS011;11962;50.838;4.430;2023-06-01T06:01:28;34.03;;;18.08;;
23567;SDS011;11962;50.838;4.430;2023-06-01T06:03:54;28.50;;;16.73;;
23567;SDS011;11962;50.838;4.430;2023-06-01T06:06:21;27.63;;;17.83;;
23567;SDS011;11962;50.838;4.430;2023-06-01T06:08:47;30.25;;;18.85;;
23567;SDS011;11962;50.838;4.430;2023-06-01T06:11:13;28.10;;;18.83;;
23567;SDS011;11962;50.838;4.430;2023-06-01T06:13:39;30.40;;;17.65;;
23567;SDS011;11962;50.838;4.430;2023-06-01T06:16:05;27.92;;;18.48;;
23567;SDS011;11962;50.838;4.430;2023-06-01T06:18:31;29.45;;;18.45;;
23567;SDS011;11962;50.838;4.430;2023-06-01T06:20:56;31.65;;;18.10;;
23567;SDS011;11962;50.838;4.430;2023-06-01T06:23:22;29.67;;;18.02;;
23567;SDS011;11962;50.838;4.430;2023-06-01T06:25:48;26.95;;;17.85;;
23567;SDS011;11962;50.838;4.430;2023-06-01T06:28:14;30.05;;;18.45;;
23567;SDS011;11962;50.838;4.430;2023-06-01T06:30:40;29.08;;;18.95;;
23567;SDS011;11962;50.838;4.430;2023-06-01T06:33:06;34.92;;;18.88;;
23567;SDS011;11962;50.838;4.430;2023-06-01T06:35:32;30.17;;;19.10;;
23567;SDS011;11962;50.838;4.430;2023-06-01T06:37:58;30.05;;;18.95;;
23567;SDS011;11962;50.838;4.430;2023-06-01T06:40:24;31.40;;;19.55;;
23567;SDS011;11962;50.838;4.430;2023-06-01T06:42:49;28.08;;;18.98;;
23567;SDS011;11962;50.838;4.430;2023-06-01T06:45:16;30.70;;;18.48;;
23567;SDS011;11962;50.838;4.430;2023-06-01T06:47:42;33.40;;;19.10;;
23567;SDS011;11962;50.838;4.430;2023-06-01T06:50:10;29.67;;;17.45;;
23567;SDS011;11962;50.838;4.430;2023-06-01T06:52:36;33.25;;;18.67;;
23567;SDS011;11962;50.838;4.430;2023-06-01T06:55:02;29.90;;;18.58;;
23567;SDS011;11962;50.838;4.430;2023-06-01T06:57:28;28.13;;;17.15;;
23567;SDS011;11962;50.838;4.430;2023-06-01T06:59:54;26.70;;;16.73;;
23567;SDS011;11962;50.838;4.430;2023-06-01T07:02:19;27.17;;;17.70;;
23567;SDS011;11962;50.838;4.430;2023-06-01T07:04:45;26.17;;;16.40;;
23567;SDS011;11962;50.838;4.430;2023-06-01T07:07:12;21.77;;;17.08;;
23567;SDS011;11962;50.838;4.430;2023-06-01T07:09:37;29.33;;;17.90;;
23567;SDS011;11962;50.838;4.430;2023-06-01T07:12:03;24.20;;;16.67;;
23567;SDS011;11962;50.838;4.430;2023-06-01T07:14:31;25.02;;;17.70;;
23567;SDS011;11962;50.838;4.430;2023-06-01T07:16:56;22.98;;;15.52;;
23567;SDS011;11962;50.838;4.430;2023-06-01T07:19:22;26.13;;;15.88;;
23567;SDS011;11962;50.838;4.430;2023-06-01T07:21:48;21.55;;;14.77;;
23567;SDS011;11962;50.838;4.430;2023-06-01T07:24:17;26.10;;;15.88;;
23567;SDS011;11962;50.838;4.430;2023-06-01T07:26:44;24.40;;;14.98;;
23567;SDS011;11962;50.838;4.430;2023-06-01T07:29:10;24.25;;;14.80;;
23567;SDS011;11962;50.838;4.430;2023-06-01T07:31:37;22.92;;;14.82;;
23567;SDS011;11962;50.838;4.430;2023-06-01T07:34:04;20.65;;;14.93;;
23567;SDS011;11962;50.838;4.430;2023-06-01T07:36:29;21.38;;;14.65;;
23567;SDS011;11962;50.838;4.430;2023-06-01T07:39:02;18.23;;;13.32;;
23567;SDS011;11962;50.838;4.430;2023-06-01T07:41:31;17.25;;;13.18;;
23567;SDS011;11962;50.838;4.430;2023-06-01T07:43:58;21.48;;;13.52;;
23567;SDS011;11962;50.838;4.430;2023-06-01T07:46:23;22.67;;;13.70;;
23567;SDS011;11962;50.838;4.430;2023-06-01T07:48:49;21.40;;;13.43;;
23567;SDS011;11962;50.838;4.430;2023-06-01T07:51:15;23.33;;;13.65;;
23567;SDS011;11962;50.838;4.430;2023-06-01T07:53:41;20.85;;;12.77;;
23567;SDS011;11962;50.838;4.430;2023-06-01T07:56:08;16.52;;;12.70;;
23567;SDS011;11962;50.838;4.430;2023-06-01T07:58:34;16.73;;;13.02;;
23567;SDS011;11962;50.838;4.430;2023-06-01T08:01:01;18.10;;;13.52;;
23567;SDS011;11962;50.838;4.430;2023-06-01T08:03:28;19.92;;;13.27;;
23567;SDS011;11962;50.838;4.430;2023-06-01T08:05:53;18.30;;;13.38;;
23567;SDS011;11962;50.838;4.430;2023-06-01T08:08:22;20.15;;;13.70;;
23567;SDS011;11962;50.838;4.430;2023-06-01T08:10:48;16.35;;;13.07;;
23567;SDS011;11962;50.838;4.430;2023-06-01T08:13:14;19.75;;;13.82;;
23567;SDS011;11962;50.838;4.430;2023-06-01T08:15:40;19.88;;;14.48;;
23567;SDS011;11962;50.838;4.430;2023-06-01T08:18:07;16.77;;;13.18;;
23567;SDS011;11962;50.838;4.430;2023-06-01T08:20:33;19.02;;;12.27;;
23567;SDS011;11962;50.838;4.430;2023-06-01T08:23:00;14.55;;;12.13;;
23567;SDS011;11962;50.838;4.430;2023-06-01T08:25:28;18.80;;;12.77;;
23567;SDS011;11962;50.838;4.430;2023-06-01T08:27:54;18.83;;;13.80;;
23567;SDS011;11962;50.838;4.430;2023-06-01T08:30:20;17.20;;;13.23;;
23567;SDS011;11962;50.838;4.430;2023-06-01T08:32:46;16.00;;;12.82;;
23567;SDS011;11962;50.838;4.430;2023-06-01T08:35:11;16.23;;;12.60;;
23567;SDS011;11962;50.838;4.430;2023-06-01T08:37:38;17.70;;;12.25;;
23567;SDS011;11962;50.838;4.430;2023-06-01T08:40:04;14.20;;;9.73;;
23567;SDS011;11962;50.838;4.430;2023-06-01T08:42:42;10.73;;;8.98;;
23567;SDS011;11962;50.838;4.430;2023-06-01T08:47:36;10.38;;;8.30;;
23567;SDS011;11962;50.838;4.430;2023-06-01T08:52:30;13.10;;;8.48;;
23567;SDS011;11962;50.838;4.430;2023-06-01T08:54:59;12.32;;;9.48;;
23567;SDS011;11962;50.838;4.430;2023-06-01T08:57:27;12.73;;;9.00;;
23567;SDS011;11962;50.838;4.430;2023-06-01T08:59:54;8.70;;;7.80;;
23567;SDS011;11962;50.838;4.430;2023-06-01T09:02:20;13.13;;;9.00;;
23567;SDS011;11962;50.838;4.430;2023-06-01T09:04:47;12.77;;;9.50;;
23567;SDS011;11962;50.838;4.430;2023-06-01T09:07:13;13.45;;;9.15;;
23567;SDS011;11962;50.838;4.430;2023-06-01T09:09:39;11.40;;;9.07;;
23567;SDS011;11962;50.838;4.430;2023-06-01T09:12:15;11.60;;;8.52;;
23567;SDS011;11962;50.838;4.430;2023-06-01T09:14:43;11.73;;;8.05;;
23567;SDS011;11962;50.838;4.430;2023-06-01T09:17:15;15.40;;;9.85;;
23567;SDS011;11962;50.838;4.430;2023-06-01T09:19:47;11.77;;;8.95;;
23567;SDS011;11962;50.838;4.430;2023-06-01T09:22:15;13.75;;;9.30;;
23567;SDS011;11962;50.838;4.430;2023-06-01T09:24:41;12.65;;;9.32;;
23567;SDS011;11962;50.838;4.430;2023-06-01T09:27:24;11.82;;;8.70;;
23567;SDS011;11962;50.838;4.430;2023-06-01T09:29:54;15.30;;;10.23;;
23567;SDS011;11962;50.838;4.430;2023-06-01T09:32:21;11.35;;;9.98;;
23567;SDS011;11962;50.838;4.430;2023-06-01T09:34:47;10.65;;;9.55;;
23567;SDS011;11962;50.838;4.430;2023-06-01T09:37:14;10.65;;;9.50;;
23567;SDS011;11962;50.838;4.430;2023-06-01T09:39:40;15.32;;;10.77;;
23567;SDS011;11962;50.838;4.430;2023-06-01T09:42:06;11.95;;;9.50;;
23567;SDS011;11962;50.838;4.430;2023-06-01T09:44:33;12.02;;;9.18;;
23567;SDS011;11962;50.838;4.430;2023-06-01T09:47:01;11.13;;;8.35;;
23567;SDS011;11962;50.838;4.430;2023-06-01T09:49:32;11.57;;;9.60;;
23567;SDS011;11962;50.838;4.430;2023-06-01T09:54:39;16.98;;;9.95;;
23567;SDS011;11962;50.838;4.430;2023-06-01T09:57:05;14.00;;;9.63;;
23567;SDS011;11962;50.838;4.430;2023-06-01T10:02:18;12.15;;;10.63;;
23567;SDS011;11962;50.838;4.430;2023-06-01T10:04:54;13.05;;;10.27;;
23567;SDS011;11962;50.838;4.430;2023-06-01T10:07:23;12.30;;;10.52;;
23567;SDS011;11962;50.838;4.430;2023-06-01T10:09:56;12.85;;;11.05;;
23567;SDS011;11962;50.838;4.430;2023-06-01T10:12:24;12.05;;;10.63;;
23567;SDS011;11962;50.838;4.430;2023-06-01T10:17:17;13.40;;;11.68;;
23567;SDS011;11962;50.838;4.430;2023-06-01T10:19:44;15.18;;;11.27;;
23567;SDS011;11962;50.838;4.430;2023-06-01T10:22:11;12.80;;;11.50;;
23567;SDS011;11962;50.838;4.430;2023-06-01T10:24:37;11.30;;;10.02;;
23567;SDS011;11962;50.838;4.430;2023-06-01T10:30:26;12.25;;;10.85;;
23567;SDS011;11962;50.838;4.430;2023-06-01T10:32:52;10.70;;;9.60;;
23567;SDS011;11962;50.838;4.430;2023-06-01T10:40:35;12.38;;;10.05;;
23567;SDS011;11962;50.838;4.430;2023-06-01T10:43:01;13.80;;;9.23;;
23567;SDS011;11962;50.838;4.430;2023-06-01T10:48:03;13.25;;;10.80;;
23567;SDS011;11962;50.838;4.430;2023-06-01T10:50:30;14.95;;;8.77;;
23567;SDS011;11962;50.838;4.430;2023-06-01T10:52:56;13.23;;;9.60;;
23567;SDS011;11962;50.838;4.430;2023-06-01T10:56:17;13.75;;;9.13;;
23567;SDS011;11962;50.838;4.430;2023-06-01T10:58:45;12.85;;;9.75;;
23567;SDS011;11962;50.838;4.430;2023-06-01T11:03:44;12.50;;;8.68;;
23567;SDS011;11962;50.838;4.430;2023-06-01T11:06:30;12.90;;;9.75;;
23567;SDS011;11962;50.838;4.430;2023-06-01T11:08:59;16.63;;;9.10;;
23567;SDS011;11962;50.838;4.430;2023-06-01T11:11:59;16.92;;;9.98;;
23567;SDS011;11962;50.838;4.430;2023-06-01T11:14:21;12.77;;;9.80;;
23567;SDS011;11962;50.838;4.430;2023-06-01T11:16:54;11.38;;;9.23;;
23567;SDS011;11962;50.838;4.430;2023-06-01T11:19:21;13.02;;;9.70;;
23567;SDS011;11962;50.838;4.430;2023-06-01T11:21:57;13.90;;;9.35;;
23567;SDS011;11962;50.838;4.430;2023-06-01T11:24:36;12.70;;;9.85;;
23567;SDS011;11962;50.838;4.430;2023-06-01T11:27:06;14.38;;;10.65;;
23567;SDS011;11962;50.838;4.430;2023-06-01T11:29:33;13.40;;;10.07;;
23567;SDS011;11962;50.838;4.430;2023-06-01T11:32:00;14.68;;;10.95;;
23567;SDS011;11962;50.838;4.430;2023-06-01T11:37:02;13.18;;;10.68;;
23567;SDS011;11962;50.838;4.430;2023-06-01T11:39:28;16.38;;;11.35;;
23567;SDS011;11962;50.838;4.430;2023-06-01T11:44:34;16.75;;;11.88;;
23567;SDS011;11962;50.838;4.430;2023-06-01T11:47:01;16.63;;;11.93;;
23567;SDS011;11962;50.838;4.430;2023-06-01T11:49:29;23.35;;;13.40;;
23567;SDS011;11962;50.838;4.430;2023-06-01T11:51:55;14.63;;;12.15;;
23567;SDS011;11962;50.838;4.430;2023-06-01T11:54:25;21.33;;;11.27;;
23567;SDS011;11962;50.838;4.430;2023-06-01T11:56:53;15.40;;;10.77;;
23567;SDS011;11962;50.838;4.430;2023-06-01T11:59:19;19.17;;;11.23;;
23567;SDS011;11962;50.838;4.430;2023-06-01T12:01:47;13.82;;;10.45;;
23567;SDS011;11962;50.838;4.430;2023-06-01T12:04:15;14.43;;;10.55;;
23567;SDS011;11962;50.838;4.430;2023-06-01T12:06:41;23.77;;;12.95;;
23567;SDS011;11962;50.838;4.430;2023-06-01T12:09:08;16.55;;;11.40;;
23567;SDS011;11962;50.838;4.430;2023-06-01T12:11:34;14.63;;;10.35;;
23567;SDS011;11962;50.838;4.430;2023-06-01T12:14:00;17.35;;;10.80;;
23567;SDS011;11962;50.838;4.430;2023-06-01T12:19:26;20.67;;;12.07;;
23567;SDS011;11962;50.838;4.430;2023-06-01T12:21:53;18.83;;;11.85;;
23567;SDS011;11962;50.838;4.430;2023-06-01T12:24:27;15.32;;;10.73;;
23567;SDS011;11962;50.838;4.430;2023-06-01T12:26:54;19.48;;;12.30;;
23567;SDS011;11962;50.838;4.430;2023-06-01T12:32:07;20.38;;;11.85;;
23567;SDS011;11962;50.838;4.430;2023-06-01T12:34:37;15.20;;;10.25;;
23567;SDS011;11962;50.838;4.430;2023-06-01T12:37:14;16.98;;;11.00;;
23567;SDS011;11962;50.838;4.430;2023-06-01T12:39:53;16.83;;;10.73;;
23567;SDS011;11962;50.838;4.430;2023-06-01T12:42:33;16.17;;;10.35;;
23567;SDS011;11962;50.838;4.430;2023-06-01T12:45:03;16.42;;;10.85;;
23567;SDS011;11962;50.838;4.430;2023-06-01T12:47:37;13.68;;;10.05;;
23567;SDS011;11962;50.838;4.430;2023-06-01T12:50:10;15.50;;;9.90;;
23567;SDS011;11962;50.838;4.430;2023-06-01T12:52:37;15.27;;;10.03;;
23567;SDS011;11962;50.838;4.430;2023-06-01T12:55:04;17.65;;;9.98;;
23567;SDS011;11962;50.838;4.430;2023-06-01T12:57:31;16.95;;;11.00;;
23567;SDS011;11962;50.838;4.430;2023-06-01T12:59:59;22.27;;;11.13;;
23567;SDS011;11962;50.838;4.430;2023-06-01T13:02:25;19.08;;;10.93;;
23567;SDS011;11962;50.838;4.430;2023-06-01T13:04:51;14.88;;;10.20;;
23567;SDS011;11962;50.838;4.430;2023-06-01T13:07:18;15.57;;;10.13;;
23567;SDS011;11962;50.838;4.430;2023-06-01T13:09:47;14.07;;;8.95;;
23567;SDS011;11962;50.838;4.430;2023-06-01T13:12:13;15.98;;;9.68;;
23567;SDS011;11962;50.838;4.430;2023-06-01T13:14:39;17.98;;;9.43;;
23567;SDS011;11962;50.838;4.430;2023-06-01T13:17:04;14.52;;;10.63;;
23567;SDS011;11962;50.838;4.430;2023-06-01T13:19:30;14.43;;;9.65;;
23567;SDS011;11962;50.838;4.430;2023-06-01T13:21:56;15.80;;;9.50;;
23567;SDS011;11962;50.838;4.430;2023-06-01T13:24:22;15.18;;;9.18;;
23567;SDS011;11962;50.838;4.430;2023-06-01T13:26:48;15.85;;;9.15;;
23567;SDS011;11962;50.838;4.430;2023-06-01T13:29:14;17.58;;;10.45;;
23567;SDS011;11962;50.838;4.430;2023-06-01T13:31:41;17.75;;;10.25;;
23567;SDS011;11962;50.838;4.430;2023-06-01T13:34:06;19.38;;;11.13;;
23567;SDS011;11962;50.838;4.430;2023-06-01T13:36:32;16.85;;;10.32;;
23567;SDS011;11962;50.838;4.430;2023-06-01T13:39:00;18.38;;;9.52;;
23567;SDS011;11962;50.838;4.430;2023-06-01T13:41:26;15.02;;;9.98;;
23567;SDS011;11962;50.838;4.430;2023-06-01T13:43:51;16.75;;;9.82;;
23567;SDS011;11962;50.838;4.430;2023-06-01T13:46:17;17.17;;;9.63;;
23567;SDS011;11962;50.838;4.430;2023-06-01T13:48:43;20.58;;;10.68;;
23567;SDS011;11962;50.838;4.430;2023-06-01T13:51:09;16.98;;;10.43;;
23567;SDS011;11962;50.838;4.430;2023-06-01T13:53:35;19.75;;;9.23;;
23567;SDS011;11962;50.838;4.430;2023-06-01T13:56:01;15.15;;;9.43;;
23567;SDS011;11962;50.838;4.430;2023-06-01T13:58:27;17.80;;;10.00;;
23567;SDS011;11962;50.838;4.430;2023-06-01T14:00:53;15.02;;;9.32;;
23567;SDS011;11962;50.838;4.430;2023-06-01T14:03:19;15.82;;;8.85;;
23567;SDS011;11962;50.838;4.430;2023-06-01T14:05:45;16.83;;;8.57;;
23567;SDS011;11962;50.838;4.430;2023-06-01T14:08:11;14.95;;;8.88;;
23567;SDS011;11962;50.838;4.430;2023-06-01T14:10:36;13.98;;;8.18;;
23567;SDS011;11962;50.838;4.430;2023-06-01T14:13:02;15.20;;;8.75;;
23567;SDS011;11962;50.838;4.430;2023-06-01T14:15:28;14.88;;;7.78;;
23567;SDS011;11962;50.838;4.430;2023-06-01T14:17:55;14.23;;;8.25;;
23567;SDS011;11962;50.838;4.430;2023-06-01T14:20:21;14.38;;;8.00;;
23567;SDS011;11962;50.838;4.430;2023-06-01T14:22:47;15.65;;;7.05;;
23567;SDS011;11962;50.838;4.430;2023-06-01T14:25:12;13.63;;;6.88;;
23567;SDS011;11962;50.838;4.430;2023-06-01T14:27:38;11.13;;;6.88;;
23567;SDS011;11962;50.838;4.430;2023-06-01T14:30:05;12.20;;;6.97;;
23567;SDS011;11962;50.838;4.430;2023-06-01T14:32:32;11.15;;;6.00;;
23567;SDS011;11962;50.838;4.430;2023-06-01T14:34:57;10.68;;;5.80;;
23567;SDS011;11962;50.838;4.430;2023-06-01T14:37:23;12.60;;;5.63;;
23567;SDS011;11962;50.838;4.430;2023-06-01T14:39:49;8.57;;;5.20;;
23567;SDS011;11962;50.838;4.430;2023-06-01T14:42:15;9.23;;;5.63;;
23567;SDS011;11962;50.838;4.430;2023-06-01T14:44:42;10.52;;;5.38;;
23567;SDS011;11962;50.838;4.430;2023-06-01T14:47:08;12.57;;;6.05;;
23567;SDS011;11962;50.838;4.430;2023-06-01T14:49:36;10.15;;;6.20;;
23567;SDS011;11962;50.838;4.430;2023-06-01T14:52:02;10.48;;;5.75;;
23567;SDS011;11962;50.838;4.430;2023-06-01T14:54:28;9.10;;;5.35;;
23567;SDS011;11962;50.838;4.430;2023-06-01T14:56:54;10.43;;;5.50;;
23567;SDS011;11962;50.838;4.430;2023-06-01T14:59:20;7.85;;;4.85;;
23567;SDS011;11962;50.838;4.430;2023-06-01T15:01:46;8.55;;;5.15;;
23567;SDS011;11962;50.838;4.430;2023-06-01T15:04:11;10.85;;;5.70;;
23567;SDS011;11962;50.838;4.430;2023-06-01T15:06:37;9.90;;;5.80;;
23567;SDS011;11962;50.838;4.430;2023-06-01T15:09:03;10.32;;;5.65;;
23567;SDS011;11962;50.838;4.430;2023-06-01T15:11:29;11.50;;;5.13;;
23567;SDS011;11962;50.838;4.430;2023-06-01T15:13:55;11.32;;;5.47;;
23567;SDS011;11962;50.838;4.430;2023-06-01T15:16:21;10.70;;;5.00;;
23567;SDS011;11962;50.838;4.430;2023-06-01T15:18:46;10.25;;;5.25;;
23567;SDS011;11962;50.838;4.430;2023-06-01T15:21:12;10.32;;;5.55;;
23567;SDS011;11962;50.838;4.430;2023-06-01T15:23:38;11.85;;;5.70;;
23567;SDS011;11962;50.838;4.430;2023-06-01T15:26:05;13.45;;;6.28;;
23567;SDS011;11962;50.838;4.430;2023-06-01T15:28:30;10.02;;;6.70;;